Archival Weather

Republic

Farmingdale, New York (KFRG)

Report from: Friday, February 23, 2024 2:53 AM EST
Current time: Friday, June 21, 2024 2:55 AM EDT

Current weather – Weather history – Daily summaries
Weather forecast

Temperature5.6°C (42.1°F)
Wind chill2.5°C (36.6°F)
Dew point4.4°C (39.9°F)
Winds 8 kts (4.1 m/s, 9.2 mph) East-Southeast (110°)
Visibility10 mi. (16.1 km)
Clouds Ceiling: Broken clouds 6,500 ft. (1,981 m)
Overcast 8,000 ft. (2,438 m)
Altimeter29.59 in.Hg (1002 mB)
Relative humidity92 %
Density altitude-624 ft. (-190 m)
Sea-level pressure100.2 kPa (1002 mB, 29.59 in.Hg)
Remarks Fully automated report
Automated weather observing station without precipitation discriminator
Flight conditions Visual Meteorological Conditions
Raw dataKFRG 230753Z AUTO 11008KT 10SM BKN065 OVC080 06/04 A2959 RMK AO1 SLP019 T00560044
An error has occurred. This application may no longer respond until reloaded. Reload 🗙